createdAt,value
2022-08-03T00:00:26.698Z,21.23
2022-08-03T00:02:53.991Z,21.21
2022-08-03T00:05:21.089Z,21.13
2022-08-03T00:07:48.499Z,21.15
2022-08-03T00:10:16.963Z,21.12
2022-08-03T00:12:43.794Z,21.11
2022-08-03T00:15:15.221Z,21.09
2022-08-03T00:17:52.039Z,21.05
2022-08-03T00:20:21.533Z,21.05
2022-08-03T00:22:48.716Z,21.03
2022-08-03T00:25:15.756Z,21.01
2022-08-03T00:27:42.463Z,20.99
2022-08-03T00:30:09.898Z,20.95
2022-08-03T00:32:36.709Z,20.97
2022-08-03T00:35:09.165Z,20.96
2022-08-03T00:37:41.641Z,20.95
2022-08-03T00:40:13.781Z,20.92
2022-08-03T00:42:50.749Z,20.93
2022-08-03T00:45:18.719Z,20.93
2022-08-03T00:47:45.784Z,20.93
2022-08-03T00:50:14.614Z,20.91
2022-08-03T00:52:41.820Z,20.87
2022-08-03T00:55:09.900Z,20.81
2022-08-03T00:57:37.458Z,20.83
2022-08-03T01:00:07.175Z,20.81
2022-08-03T01:02:34.098Z,20.79
2022-08-03T01:05:00.927Z,20.77
2022-08-03T01:07:49.334Z,20.74
2022-08-03T01:10:28.724Z,20.67
2022-08-03T01:14:03.611Z,20.72
2022-08-03T01:16:08.696Z,20.71
2022-08-03T01:18:52.909Z,20.68
2022-08-03T01:22:06.627Z,20.62
2022-08-03T01:25:14.047Z,20.62
2022-08-03T01:27:43.454Z,20.59
2022-08-03T01:30:12.599Z,20.50
2022-08-03T01:32:58.121Z,20.45
2022-08-03T01:35:42.425Z,20.41
2022-08-03T01:38:15.902Z,20.32
2022-08-03T01:40:45.044Z,20.21
2022-08-03T01:44:27.652Z,20.19
2022-08-03T01:46:03.955Z,20.15
2022-08-03T01:48:32.060Z,20.15
2022-08-03T01:51:00.269Z,20.13
2022-08-03T01:53:28.809Z,20.13
2022-08-03T01:55:57.582Z,20.13
2022-08-03T01:58:25.925Z,20.01
2022-08-03T02:00:54.049Z,19.99
2022-08-03T02:03:22.915Z,19.92
2022-08-03T02:06:01.252Z,19.84
2022-08-03T02:08:39.729Z,19.77
2022-08-03T02:11:07.285Z,19.74
2022-08-03T02:13:35.533Z,19.72
2022-08-03T02:16:05.746Z,19.72
2022-08-03T02:18:33.546Z,19.67
2022-08-03T02:21:11.105Z,19.64
2022-08-03T02:23:38.596Z,19.62
2022-08-03T02:26:09.456Z,19.62
2022-08-03T02:28:38.959Z,19.60
2022-08-03T02:31:14.052Z,19.60
2022-08-03T02:33:49.847Z,19.63
2022-08-03T02:36:24.446Z,19.64
2022-08-03T02:38:56.220Z,19.55
2022-08-03T02:41:28.332Z,19.40
2022-08-03T02:44:06.414Z,19.40
2022-08-03T02:46:38.723Z,19.38
2022-08-03T02:49:49.431Z,19.39
2022-08-03T02:51:55.401Z,19.35
2022-08-03T02:54:23.955Z,19.33
2022-08-03T02:56:52.654Z,19.34
2022-08-03T02:59:21.199Z,19.34
2022-08-03T03:01:49.236Z,19.33
2022-08-03T03:04:16.598Z,19.35
2022-08-03T03:06:45.269Z,19.30
2022-08-03T03:09:15.248Z,19.26
2022-08-03T03:11:44.235Z,19.29
2022-08-03T03:14:13.629Z,19.23
2022-08-03T03:16:42.935Z,19.07
2022-08-03T03:19:13.139Z,19.03
2022-08-03T03:21:40.739Z,18.98
2022-08-03T03:24:09.578Z,18.93
2022-08-03T03:26:40.697Z,18.94
2022-08-03T03:29:09.861Z,18.93
2022-08-03T03:31:37.423Z,18.88
2022-08-03T03:34:05.214Z,18.83
2022-08-03T03:36:33.649Z,18.83
2022-08-03T03:39:00.495Z,18.85
2022-08-03T03:41:43.514Z,18.84
2022-08-03T03:44:10.534Z,18.76
2022-08-03T03:46:38.927Z,18.79
2022-08-03T03:49:08.990Z,18.73
2022-08-03T03:51:35.836Z,18.66
2022-08-03T03:54:07.576Z,18.61
2022-08-03T03:56:34.547Z,18.59
2022-08-03T03:59:01.503Z,18.58
2022-08-03T04:01:28.920Z,18.60
2022-08-03T04:03:55.752Z,18.62
2022-08-03T04:06:40.993Z,18.57
2022-08-03T04:09:29.335Z,18.52
2022-08-03T04:12:01.151Z,18.45
2022-08-03T04:14:35.359Z,18.45
2022-08-03T04:17:05.053Z,18.46
2022-08-03T04:19:39.667Z,18.46
2022-08-03T04:22:09.929Z,18.54
2022-08-03T04:24:49.774Z,18.57
2022-08-03T04:27:21.521Z,18.50
2022-08-03T04:29:51.775Z,18.59
2022-08-03T04:32:20.633Z,18.57
2022-08-03T04:34:47.915Z,18.63
2022-08-03T04:37:41.866Z,18.64
2022-08-03T04:40:13.564Z,18.66
2022-08-03T04:42:43.089Z,18.70
2022-08-03T04:45:13.218Z,18.71
2022-08-03T04:47:40.386Z,18.66
2022-08-03T04:50:12.504Z,18.76
2022-08-03T04:52:40.342Z,18.80
2022-08-03T04:55:08.510Z,18.81
2022-08-03T04:57:35.445Z,18.93
2022-08-03T05:00:03.698Z,18.99
2022-08-03T05:02:32.194Z,19.06
2022-08-03T05:04:59.599Z,19.11
2022-08-03T05:07:34.087Z,19.14
2022-08-03T05:10:05.695Z,19.19
2022-08-03T05:12:42.575Z,19.28
2022-08-03T05:15:09.892Z,19.34
2022-08-03T05:17:37.017Z,19.36
2022-08-03T05:20:04.893Z,19.43
2022-08-03T05:22:31.897Z,19.49
2022-08-03T05:24:58.618Z,19.59
2022-08-03T05:27:25.342Z,19.60
2022-08-03T05:29:52.405Z,19.64
2022-08-03T05:32:19.403Z,19.70
2022-08-03T05:34:46.342Z,19.73
2022-08-03T05:37:13.252Z,19.77
2022-08-03T05:39:39.957Z,19.90
2022-08-03T05:42:06.682Z,19.97
2022-08-03T05:44:33.525Z,20.04
2022-08-03T05:47:00.378Z,20.13
2022-08-03T05:49:27.213Z,20.22
2022-08-03T05:52:00.021Z,20.30
2022-08-03T05:54:56.918Z,20.45
2022-08-03T05:57:24.956Z,20.55
2022-08-03T05:59:54.764Z,20.63
2022-08-03T06:02:26.585Z,20.70
2022-08-03T06:04:53.701Z,20.76
2022-08-03T06:07:20.354Z,20.85
2022-08-03T06:10:35.007Z,20.88
2022-08-03T06:12:36.293Z,20.98
2022-08-03T06:15:04.504Z,21.10
2022-08-03T06:17:37.470Z,21.15
2022-08-03T06:20:05.961Z,21.23
2022-08-03T06:22:34.798Z,21.24
2022-08-03T06:25:04.827Z,21.33
2022-08-03T06:27:37.249Z,21.46
2022-08-03T06:30:05.415Z,21.49
2022-08-03T06:32:32.377Z,21.64
2022-08-03T06:34:59.826Z,21.71
2022-08-03T06:37:27.286Z,21.76
2022-08-03T06:39:54.354Z,21.89
2022-08-03T06:42:22.583Z,21.97
2022-08-03T06:44:50.111Z,22.06
2022-08-03T06:47:17.374Z,22.15
2022-08-03T06:49:44.333Z,22.26
2022-08-03T06:52:37.621Z,22.37
2022-08-03T06:55:06.537Z,22.52
2022-08-03T06:57:33.277Z,22.60
2022-08-03T07:00:09.050Z,22.70
2022-08-03T07:02:38.867Z,22.85
2022-08-03T07:05:06.906Z,22.97
2022-08-03T07:07:33.892Z,23.06
2022-08-03T07:10:00.828Z,23.20
2022-08-03T07:12:30.702Z,23.34
2022-08-03T07:15:01.223Z,23.46
2022-08-03T07:17:30.399Z,23.57
2022-08-03T07:19:57.770Z,23.66
2022-08-03T07:22:24.420Z,23.83
2022-08-03T07:24:51.140Z,23.97
2022-08-03T07:27:17.875Z,24.11
2022-08-03T07:29:44.658Z,24.21
2022-08-03T07:32:11.631Z,24.34
2022-08-03T07:34:38.614Z,24.49
2022-08-03T07:37:05.562Z,24.65
2022-08-03T07:39:32.419Z,24.71
2022-08-03T07:41:59.288Z,24.82
2022-08-03T07:44:26.051Z,24.94
2022-08-03T07:46:53.096Z,25.08
2022-08-03T07:49:20.129Z,25.10
2022-08-03T07:52:07.000Z,25.21
2022-08-03T07:54:33.869Z,25.28
2022-08-03T07:57:00.768Z,25.41
2022-08-03T07:59:27.641Z,25.44
2022-08-03T08:01:54.520Z,25.51
2022-08-03T08:04:21.511Z,25.63
2022-08-03T08:06:48.346Z,25.73
2022-08-03T08:09:17.239Z,25.81
2022-08-03T08:11:44.139Z,25.82
2022-08-03T08:14:10.857Z,26.00
2022-08-03T08:16:37.518Z,26.12
2022-08-03T08:19:04.776Z,26.01
2022-08-03T08:21:53.093Z,26.13
2022-08-03T08:24:20.800Z,26.07
2022-08-03T08:26:49.195Z,26.28
2022-08-03T08:29:16.057Z,26.26
2022-08-03T08:31:42.890Z,26.44
2022-08-03T08:34:09.692Z,26.45
2022-08-03T08:36:36.499Z,26.50
2022-08-03T08:39:03.551Z,26.52
2022-08-03T08:41:34.003Z,26.68
2022-08-03T08:44:04.094Z,26.66
2022-08-03T08:46:33.423Z,26.65
2022-08-03T08:49:00.914Z,26.64
2022-08-03T08:51:54.933Z,26.79
2022-08-03T08:54:25.862Z,26.91
2022-08-03T08:56:56.260Z,26.91
2022-08-03T08:59:24.577Z,27.11
2022-08-03T09:01:51.573Z,27.23
2022-08-03T09:04:18.989Z,27.33
2022-08-03T09:07:04.407Z,27.47
2022-08-03T09:10:10.452Z,27.54
2022-08-03T09:12:41.208Z,27.61
2022-08-03T09:15:22.807Z,27.58
2022-08-03T09:17:51.888Z,27.69
2022-08-03T09:20:20.259Z,27.65
2022-08-03T09:22:54.930Z,27.71
2022-08-03T09:25:29.218Z,27.68
2022-08-03T09:28:08.579Z,27.71
2022-08-03T09:30:37.007Z,27.67
2022-08-03T09:33:08.336Z,27.80
2022-08-03T09:35:54.120Z,27.75
2022-08-03T09:38:26.387Z,27.87
2022-08-03T09:40:59.856Z,27.90
2022-08-03T09:43:28.371Z,27.98
2022-08-03T09:46:05.649Z,28.13
2022-08-03T09:48:37.410Z,28.20
2022-08-03T09:51:13.593Z,28.34
2022-08-03T09:53:58.885Z,28.50
2022-08-03T09:56:47.559Z,28.67
2022-08-03T09:59:24.854Z,28.80
2022-08-03T10:01:54.006Z,28.86
2022-08-03T10:04:25.688Z,29.40
2022-08-03T10:07:09.507Z,29.14
2022-08-03T10:09:38.242Z,29.52
2022-08-03T10:12:13.144Z,29.95
2022-08-03T10:14:42.115Z,30.09
2022-08-03T10:17:10.018Z,30.58
2022-08-03T10:19:36.812Z,30.46
2022-08-03T10:22:37.338Z,30.73
2022-08-03T10:25:07.842Z,30.99
2022-08-03T10:27:39.940Z,31.00
2022-08-03T10:30:09.838Z,31.25
2022-08-03T10:32:42.208Z,31.18
2022-08-03T10:35:20.501Z,31.39
2022-08-03T10:38:29.321Z,32.40
2022-08-03T10:40:59.081Z,32.32
2022-08-03T10:43:36.471Z,32.15
2022-08-03T10:46:07.333Z,32.28
2022-08-03T10:48:36.096Z,32.12
2022-08-03T10:51:03.742Z,32.78
2022-08-03T10:53:40.536Z,33.18
2022-08-03T10:57:14.375Z,33.18
2022-08-03T10:59:47.499Z,33.35
2022-08-03T11:02:15.432Z,33.79
2022-08-03T11:04:43.001Z,33.67
2022-08-03T11:07:23.683Z,33.97
2022-08-03T11:09:53.291Z,33.50
2022-08-03T11:12:32.256Z,33.87
2022-08-03T11:15:02.143Z,33.48
2022-08-03T11:17:29.098Z,33.47
2022-08-03T11:19:56.668Z,34.05
2022-08-03T11:22:26.202Z,34.05
2022-08-03T11:24:57.447Z,34.03
2022-08-03T11:27:26.371Z,34.47
2022-08-03T11:30:13.950Z,34.95
2022-08-03T11:32:48.272Z,34.64
2022-08-03T11:35:35.549Z,34.46
2022-08-03T11:38:07.589Z,35.45
2022-08-03T11:40:46.046Z,35.35
2022-08-03T11:43:31.789Z,35.68
2022-08-03T11:46:07.375Z,36.05
2022-08-03T11:48:35.144Z,36.26
2022-08-03T11:51:03.124Z,36.46
2022-08-03T11:53:31.449Z,36.71
2022-08-03T11:56:02.979Z,37.47
2022-08-03T11:59:00.815Z,37.63
2022-08-03T12:01:22.728Z,37.88
2022-08-03T12:03:50.356Z,37.55
2022-08-03T12:06:18.951Z,37.28
2022-08-03T12:08:46.529Z,37.46
2022-08-03T12:11:15.435Z,37.09
2022-08-03T12:14:10.710Z,37.14
2022-08-03T12:16:38.386Z,37.18
2022-08-03T12:19:07.148Z,37.27
2022-08-03T12:21:34.083Z,36.97
2022-08-03T12:24:05.533Z,37.24
2022-08-03T12:26:58.643Z,37.40
2022-08-03T12:29:26.710Z,38.04
2022-08-03T12:31:53.774Z,37.58
2022-08-03T12:34:21.120Z,37.23
2022-08-03T12:36:53.643Z,36.54
2022-08-03T12:39:24.891Z,37.06
2022-08-03T12:41:56.000Z,36.83
2022-08-03T12:44:36.585Z,36.16
2022-08-03T12:47:04.892Z,36.77
2022-08-03T12:49:49.453Z,37.29
2022-08-03T12:52:18.068Z,38.07
2022-08-03T12:54:58.843Z,38.73
2022-08-03T12:57:40.047Z,38.44
2022-08-03T13:00:29.211Z,38.49
2022-08-03T13:03:38.975Z,37.35
2022-08-03T13:05:53.045Z,37.77
2022-08-03T13:08:24.907Z,37.35
2022-08-03T13:10:52.070Z,38.30
2022-08-03T13:13:20.902Z,38.65
2022-08-03T13:15:49.187Z,38.58
2022-08-03T13:18:17.361Z,38.95
2022-08-03T13:20:44.560Z,39.27
2022-08-03T13:23:16.189Z,40.23
2022-08-03T13:25:55.404Z,39.91
2022-08-03T13:28:23.628Z,39.43
2022-08-03T13:30:51.328Z,39.02
2022-08-03T13:33:18.619Z,38.12
2022-08-03T13:35:45.672Z,36.94
2022-08-03T13:38:12.638Z,37.61
2022-08-03T13:40:42.365Z,37.36
2022-08-03T13:43:09.571Z,36.61
2022-08-03T13:45:36.373Z,37.33
2022-08-03T13:48:03.144Z,37.39
2022-08-03T13:50:31.462Z,38.01
2022-08-03T13:52:58.270Z,38.77
2022-08-03T13:55:24.973Z,39.20
2022-08-03T13:58:04.604Z,37.91
2022-08-03T14:00:34.350Z,37.82
2022-08-03T14:03:13.332Z,37.82
2022-08-03T14:05:41.821Z,37.54
2022-08-03T14:08:08.740Z,37.50
2022-08-03T14:10:43.000Z,37.69
2022-08-03T14:13:12.777Z,37.91
2022-08-03T14:15:50.107Z,37.94
2022-08-03T14:18:28.804Z,38.78
2022-08-03T14:21:06.958Z,38.76
2022-08-03T14:23:35.812Z,38.16
2022-08-03T14:26:02.604Z,38.42
2022-08-03T14:28:29.923Z,37.80
2022-08-03T14:30:57.079Z,37.53
2022-08-03T14:33:24.249Z,37.94
2022-08-03T14:35:52.224Z,37.93
2022-08-03T14:38:19.254Z,38.28
2022-08-03T14:40:46.442Z,38.45
2022-08-03T14:43:14.147Z,38.45
2022-08-03T14:45:43.582Z,38.04
2022-08-03T14:50:28.787Z,38.12
2022-08-03T14:50:59.544Z,38.33
2022-08-03T14:53:26.392Z,38.73
2022-08-03T14:55:53.572Z,38.51
2022-08-03T14:58:25.461Z,39.09
2022-08-03T15:00:53.797Z,38.97
2022-08-03T15:03:23.962Z,39.19
2022-08-03T15:05:56.298Z,39.68
2022-08-03T15:08:24.600Z,39.99
2022-08-03T15:10:51.815Z,39.43
2022-08-03T15:13:19.849Z,39.68
2022-08-03T15:15:47.794Z,39.79
2022-08-03T15:18:14.579Z,39.61
2022-08-03T15:20:46.325Z,40.09
2022-08-03T15:23:17.807Z,40.04
2022-08-03T15:26:28.086Z,40.08
2022-08-03T15:28:33.654Z,39.46
2022-08-03T15:31:01.258Z,38.53
2022-08-03T15:33:28.730Z,38.05
2022-08-03T15:35:56.827Z,38.06
2022-08-03T15:38:25.925Z,38.73
2022-08-03T15:40:57.170Z,38.88
2022-08-03T15:43:24.340Z,38.64
2022-08-03T15:46:19.045Z,38.46
2022-08-03T15:48:39.048Z,38.59
2022-08-03T15:51:06.801Z,38.07
2022-08-03T15:53:33.949Z,38.27
2022-08-03T15:56:05.165Z,38.54
2022-08-03T15:59:10.192Z,39.00
2022-08-03T16:01:21.799Z,39.15
2022-08-03T16:03:49.015Z,39.05
2022-08-03T16:06:16.025Z,38.47
2022-08-03T16:08:43.207Z,38.87
2022-08-03T16:11:10.883Z,38.15
2022-08-03T16:14:13.257Z,38.46
2022-08-03T16:16:24.594Z,38.84
2022-08-03T16:18:51.560Z,38.39
2022-08-03T16:21:19.405Z,38.47
2022-08-03T16:23:48.857Z,38.32
2022-08-03T16:26:15.665Z,38.80
2022-08-03T16:28:42.605Z,38.70
2022-08-03T16:31:09.602Z,39.00
2022-08-03T16:33:36.596Z,39.10
2022-08-03T16:36:03.837Z,38.22
2022-08-03T16:38:31.383Z,38.38
2022-08-03T16:41:01.168Z,37.90
2022-08-03T16:43:28.489Z,37.85
2022-08-03T16:45:55.536Z,37.43
2022-08-03T16:48:23.662Z,37.53
2022-08-03T16:50:51.248Z,37.86
2022-08-03T16:53:33.502Z,37.45
2022-08-03T16:56:09.882Z,36.60
2022-08-03T16:58:42.450Z,36.50
2022-08-03T17:01:21.667Z,36.56
2022-08-03T17:04:01.890Z,36.21
2022-08-03T17:06:34.056Z,36.07
2022-08-03T17:09:02.140Z,35.77
2022-08-03T17:11:32.097Z,35.57
2022-08-03T17:14:00.163Z,35.18
2022-08-03T17:16:28.358Z,35.31
2022-08-03T17:19:03.992Z,34.97
2022-08-03T17:21:39.959Z,35.03
2022-08-03T17:24:19.752Z,35.15
2022-08-03T17:26:51.109Z,34.89
2022-08-03T17:29:23.090Z,34.89
2022-08-03T17:31:53.485Z,34.92
2022-08-03T17:34:21.684Z,34.37
2022-08-03T17:37:27.373Z,34.52
2022-08-03T17:39:58.380Z,34.39
2022-08-03T17:42:30.634Z,34.30
2022-08-03T17:45:01.936Z,34.17
2022-08-03T17:47:42.032Z,34.30
2022-08-03T17:50:23.517Z,34.22
2022-08-03T17:53:07.532Z,34.03
2022-08-03T17:55:55.169Z,33.78
2022-08-03T17:58:58.115Z,33.53
2022-08-03T18:05:02.349Z,32.84
2022-08-03T18:08:01.668Z,32.72
2022-08-03T18:10:36.088Z,32.54
2022-08-03T18:13:20.803Z,32.31
2022-08-03T18:15:58.191Z,32.20
2022-08-03T18:18:34.798Z,32.22
2022-08-03T18:23:52.320Z,32.03
2022-08-03T18:26:20.431Z,31.94
2022-08-03T18:28:52.820Z,31.68
2022-08-03T18:32:00.564Z,31.46
2022-08-03T18:34:19.088Z,31.32
2022-08-03T18:36:56.833Z,31.22
2022-08-03T18:39:23.990Z,31.09
2022-08-03T18:41:51.705Z,30.82
2022-08-03T18:44:37.661Z,30.67
2022-08-03T18:47:23.251Z,30.65
2022-08-03T18:50:19.326Z,30.64
2022-08-03T18:53:16.110Z,30.51
2022-08-03T18:56:03.470Z,30.36
2022-08-03T18:59:02.588Z,30.23
2022-08-03T19:01:57.694Z,30.08
2022-08-03T19:04:32.564Z,30.11
2022-08-03T19:07:08.908Z,30.00
2022-08-03T19:09:49.920Z,29.97
2022-08-03T19:12:32.300Z,29.95
2022-08-03T19:15:05.341Z,29.85
2022-08-03T19:17:36.191Z,29.71
2022-08-03T19:20:08.968Z,29.49
2022-08-03T19:22:45.709Z,29.44
2022-08-03T19:25:12.780Z,29.32
2022-08-03T19:27:40.844Z,29.24
2022-08-03T19:30:21.779Z,29.16
2022-08-03T19:32:54.184Z,29.03
2022-08-03T19:35:51.216Z,28.95
2022-08-03T19:38:10.698Z,28.83
2022-08-03T19:40:43.759Z,28.73
2022-08-03T19:43:22.685Z,28.61
2022-08-03T19:46:06.424Z,28.57
2022-08-03T19:48:36.844Z,28.51
2022-08-03T19:51:12.519Z,28.51
2022-08-03T19:53:45.187Z,28.48
2022-08-03T19:56:14.398Z,28.35
2022-08-03T19:58:44.335Z,28.26
2022-08-03T20:01:21.130Z,28.19
2022-08-03T20:03:50.118Z,28.16
2022-08-03T20:06:18.255Z,28.12
2022-08-03T20:08:51.601Z,28.04
2022-08-03T20:11:20.524Z,27.97
2022-08-03T20:13:57.821Z,27.87
2022-08-03T20:16:25.437Z,27.87
2022-08-03T20:18:52.491Z,27.83
2022-08-03T20:21:23.283Z,27.77
2022-08-03T20:24:03.142Z,27.78
2022-08-03T20:26:48.308Z,27.59
2022-08-03T20:30:05.274Z,27.40
2022-08-03T20:32:16.236Z,27.19
2022-08-03T20:34:43.290Z,27.11
2022-08-03T20:37:10.092Z,27.06
2022-08-03T20:39:39.170Z,27.09
2022-08-03T20:42:13.242Z,27.06
2022-08-03T20:44:58.918Z,27.03
2022-08-03T20:47:35.735Z,27.02
2022-08-03T20:50:04.478Z,26.89
2022-08-03T20:52:43.936Z,26.82
2022-08-03T20:55:17.040Z,26.74
2022-08-03T20:57:49.216Z,26.66
2022-08-03T21:00:21.844Z,26.65
2022-08-03T21:02:49.329Z,26.65
2022-08-03T21:05:17.674Z,26.61
2022-08-03T21:08:05.584Z,26.48
2022-08-03T21:10:37.888Z,26.34
2022-08-03T21:12:56.257Z,33.21
2022-08-03T21:13:04.350Z,32.15
2022-08-03T21:13:18.492Z,26.24
2022-08-03T21:16:02.884Z,26.16
2022-08-03T21:18:44.637Z,26.16
2022-08-03T21:21:14.387Z,26.10
2022-08-03T21:23:49.129Z,25.99
2022-08-03T21:26:17.576Z,25.88
2022-08-03T21:28:46.768Z,25.85
2022-08-03T21:31:21.368Z,25.87
2022-08-03T21:33:59.797Z,25.86
2022-08-03T21:36:31.048Z,25.77
2022-08-03T21:39:00.391Z,25.75
2022-08-03T21:41:29.488Z,25.71
2022-08-03T21:43:56.648Z,25.72
2022-08-03T21:46:27.455Z,25.73
2022-08-03T21:50:04.748Z,25.68
2022-08-03T21:51:49.600Z,25.54
2022-08-03T21:54:19.788Z,25.48
2022-08-03T21:56:50.611Z,25.44
2022-08-03T21:59:20.391Z,25.32
2022-08-03T22:01:51.475Z,25.28
2022-08-03T22:04:50.756Z,25.24
2022-08-03T22:07:09.762Z,25.26
2022-08-03T22:09:37.001Z,25.22
2022-08-03T22:12:04.705Z,25.16
2022-08-03T22:14:34.205Z,25.12
2022-08-03T22:17:03.402Z,25.16
2022-08-03T22:19:33.230Z,25.08
2022-08-03T22:22:01.704Z,24.99
2022-08-03T22:24:32.067Z,25.00
2022-08-03T22:27:20.841Z,24.98
2022-08-03T22:29:49.973Z,24.97
2022-08-03T22:32:17.227Z,24.90
2022-08-03T22:34:46.496Z,24.86
2022-08-03T22:37:16.020Z,24.85
2022-08-03T22:39:44.117Z,24.78
2022-08-03T22:42:12.056Z,24.74
2022-08-03T22:44:39.741Z,24.77
2022-08-03T22:47:07.323Z,24.76
2022-08-03T22:49:36.998Z,24.70
2022-08-03T22:52:04.395Z,24.66
2022-08-03T22:54:32.970Z,24.58
2022-08-03T22:57:00.027Z,24.56
2022-08-03T22:59:39.817Z,24.59
2022-08-03T23:02:20.869Z,24.58
2022-08-03T23:04:57.017Z,24.48
2022-08-03T23:10:33.389Z,24.45
2022-08-03T23:13:01.199Z,24.42
2022-08-03T23:15:30.660Z,24.45
2022-08-03T23:17:58.829Z,24.42
2022-08-03T23:20:29.010Z,24.39
2022-08-03T23:22:57.761Z,24.35
2022-08-03T23:25:24.852Z,24.35
2022-08-03T23:28:05.146Z,24.32
2022-08-03T23:30:37.389Z,24.32
2022-08-03T23:33:04.609Z,24.33
2022-08-03T23:36:29.294Z,24.32
2022-08-03T23:38:37.341Z,24.28
2022-08-03T23:41:04.947Z,24.28
2022-08-03T23:43:52.143Z,24.21
2022-08-03T23:46:22.673Z,24.18
2022-08-03T23:48:51.142Z,24.18
2022-08-03T23:51:42.424Z,24.17
2022-08-03T23:54:26.782Z,24.18
2022-08-03T23:57:14.708Z,24.11
